sensor_id;sensor_type;location;lat;lon;timestamp;temperature;humidity
18426;DHT22;9340;48.756;9.226;2023-04-20T00:01:40;3.50;99.90
18426;DHT22;9340;48.756;9.226;2023-04-20T00:04:08;3.50;99.90
18426;DHT22;9340;48.756;9.226;2023-04-20T00:06:35;3.50;99.90
18426;DHT22;9340;48.756;9.226;2023-04-20T00:09:02;3.40;99.90
18426;DHT22;9340;48.756;9.226;2023-04-20T00:11:30;3.30;99.90
18426;DHT22;9340;48.756;9.226;2023-04-20T00:13:56;3.40;99.90
18426;DHT22;9340;48.756;9.226;2023-04-20T00:16:23;3.30;99.90
18426;DHT22;9340;48.756;9.226;2023-04-20T00:18:50;3.30;99.90
18426;DHT22;9340;48.756;9.226;2023-04-20T00:21:18;3.20;99.90
18426;DHT22;9340;48.756;9.226;2023-04-20T00:23:48;3.20;99.90
18426;DHT22;9340;48.756;9.226;2023-04-20T00:26:15;3.10;99.90
18426;DHT22;9340;48.756;9.226;2023-04-20T00:28:42;3.10;99.90
18426;DHT22;9340;48.756;9.226;2023-04-20T00:31:09;3.00;99.90
18426;DHT22;9340;48.756;9.226;2023-04-20T00:33:36;3.00;99.90
18426;DHT22;9340;48.756;9.226;2023-04-20T00:36:02;3.00;99.90
18426;DHT22;9340;48.756;9.226;2023-04-20T00:38:31;3.00;99.90
18426;DHT22;9340;48.756;9.226;2023-04-20T00:40:57;2.90;99.90
18426;DHT22;9340;48.756;9.226;2023-04-20T00:43:24;2.90;99.90
18426;DHT22;9340;48.756;9.226;2023-04-20T00:45:50;2.80;99.90
18426;DHT22;9340;48.756;9.226;2023-04-20T00:48:18;2.80;99.90
18426;DHT22;9340;48.756;9.226;2023-04-20T00:50:45;2.70;99.90
18426;DHT22;9340;48.756;9.226;2023-04-20T00:53:13;2.70;99.90
18426;DHT22;9340;48.756;9.226;2023-04-20T00:55:42;2.70;99.90
18426;DHT22;9340;48.756;9.226;2023-04-20T00:58:09;2.70;99.90
18426;DHT22;9340;48.756;9.226;2023-04-20T01:00:37;2.60;99.90
18426;DHT22;9340;48.756;9.226;2023-04-20T01:03:04;2.60;99.90
18426;DHT22;9340;48.756;9.226;2023-04-20T01:05:31;2.60;99.90
18426;DHT22;9340;48.756;9.226;2023-04-20T01:07:58;2.50;99.90
18426;DHT22;9340;48.756;9.226;2023-04-20T01:10:25;2.50;99.90
18426;DHT22;9340;48.756;9.226;2023-04-20T01:12:53;2.50;99.90
18426;DHT22;9340;48.756;9.226;2023-04-20T01:15:19;2.40;99.90
18426;DHT22;9340;48.756;9.226;2023-04-20T01:17:46;2.40;99.90
18426;DHT22;9340;48.756;9.226;2023-04-20T01:20:14;2.40;99.90
18426;DHT22;9340;48.756;9.226;2023-04-20T01:22:47;2.40;99.90
18426;DHT22;9340;48.756;9.226;2023-04-20T01:25:14;2.40;99.90
18426;DHT22;9340;48.756;9.226;2023-04-20T01:27:41;2.30;99.90
18426;DHT22;9340;48.756;9.226;2023-04-20T01:30:09;2.40;99.90
18426;DHT22;9340;48.756;9.226;2023-04-20T01:32:36;2.40;99.90
18426;DHT22;9340;48.756;9.226;2023-04-20T01:35:03;2.40;99.90
18426;DHT22;9340;48.756;9.226;2023-04-20T01:37:30;2.30;99.90
18426;DHT22;9340;48.756;9.226;2023-04-20T01:39:58;2.30;99.90
18426;DHT22;9340;48.756;9.226;2023-04-20T01:42:24;2.30;99.90
18426;DHT22;9340;48.756;9.226;2023-04-20T01:44:51;2.20;99.90
18426;DHT22;9340;48.756;9.226;2023-04-20T01:47:18;2.10;99.90
18426;DHT22;9340;48.756;9.226;2023-04-20T01:49:44;2.10;99.90
18426;DHT22;9340;48.756;9.226;2023-04-20T01:52:11;2.10;99.90
18426;DHT22;9340;48.756;9.226;2023-04-20T01:54:38;2.10;99.90
18426;DHT22;9340;48.756;9.226;2023-04-20T01:57:06;2.10;99.90
18426;DHT22;9340;48.756;9.226;2023-04-20T01:59:33;2.00;99.90
18426;DHT22;9340;48.756;9.226;2023-04-20T02:01:59;2.00;99.90
18426;DHT22;9340;48.756;9.226;2023-04-20T02:04:26;2.00;99.90
18426;DHT22;9340;48.756;9.226;2023-04-20T02:06:53;2.00;99.90
18426;DHT22;9340;48.756;9.226;2023-04-20T02:09:19;2.00;99.90
18426;DHT22;9340;48.756;9.226;2023-04-20T02:11:46;2.00;99.90
18426;DHT22;9340;48.756;9.226;2023-04-20T02:14:14;2.00;99.90
18426;DHT22;9340;48.756;9.226;2023-04-20T02:16:41;1.90;99.90
18426;DHT22;9340;48.756;9.226;2023-04-20T02:19:07;1.90;99.90
18426;DHT22;9340;48.756;9.226;2023-04-20T02:21:34;1.90;99.90
18426;DHT22;9340;48.756;9.226;2023-04-20T02:24:01;1.90;99.90
18426;DHT22;9340;48.756;9.226;2023-04-20T02:26:27;1.80;99.90
18426;DHT22;9340;48.756;9.226;2023-04-20T02:28:54;1.80;99.90
18426;DHT22;9340;48.756;9.226;2023-04-20T02:31:22;1.70;99.90
18426;DHT22;9340;48.756;9.226;2023-04-20T02:33:49;1.70;99.90
18426;DHT22;9340;48.756;9.226;2023-04-20T02:36:16;1.70;99.90
18426;DHT22;9340;48.756;9.226;2023-04-20T02:38:43;1.70;99.90
18426;DHT22;9340;48.756;9.226;2023-04-20T02:41:09;1.70;99.90
18426;DHT22;9340;48.756;9.226;2023-04-20T02:43:36;1.70;99.90
18426;DHT22;9340;48.756;9.226;2023-04-20T02:46:03;1.70;99.90
18426;DHT22;9340;48.756;9.226;2023-04-20T02:48:31;1.80;99.90
18426;DHT22;9340;48.756;9.226;2023-04-20T02:50:57;1.60;99.90
18426;DHT22;9340;48.756;9.226;2023-04-20T02:53:24;1.60;99.90
18426;DHT22;9340;48.756;9.226;2023-04-20T02:55:51;1.60;99.90
18426;DHT22;9340;48.756;9.226;2023-04-20T02:58:17;1.70;99.90
18426;DHT22;9340;48.756;9.226;2023-04-20T03:00:44;1.60;99.90
18426;DHT22;9340;48.756;9.226;2023-04-20T03:03:11;1.60;99.90
18426;DHT22;9340;48.756;9.226;2023-04-20T03:05:39;1.50;99.90
18426;DHT22;9340;48.756;9.226;2023-04-20T03:08:06;1.50;99.90
18426;DHT22;9340;48.756;9.226;2023-04-20T03:10:32;1.50;99.90
18426;DHT22;9340;48.756;9.226;2023-04-20T03:12:59;1.40;99.90
18426;DHT22;9340;48.756;9.226;2023-04-20T03:15:26;1.40;99.90
18426;DHT22;9340;48.756;9.226;2023-04-20T03:17:52;1.30;99.90
18426;DHT22;9340;48.756;9.226;2023-04-20T03:20:19;1.30;99.90
18426;DHT22;9340;48.756;9.226;2023-04-20T03:22:47;1.20;99.90
18426;DHT22;9340;48.756;9.226;2023-04-20T03:25:13;1.30;99.90
18426;DHT22;9340;48.756;9.226;2023-04-20T03:27:40;1.30;99.90
18426;DHT22;9340;48.756;9.226;2023-04-20T03:30:08;1.30;99.90
18426;DHT22;9340;48.756;9.226;2023-04-20T03:32:35;1.30;99.90
18426;DHT22;9340;48.756;9.226;2023-04-20T03:35:03;1.40;99.90
18426;DHT22;9340;48.756;9.226;2023-04-20T03:37:29;1.40;99.90
18426;DHT22;9340;48.756;9.226;2023-04-20T03:39:57;1.20;99.90
18426;DHT22;9340;48.756;9.226;2023-04-20T03:42:24;1.20;99.90
18426;DHT22;9340;48.756;9.226;2023-04-20T03:44:51;1.20;99.90
18426;DHT22;9340;48.756;9.226;2023-04-20T03:47:17;1.20;99.90
18426;DHT22;9340;48.756;9.226;2023-04-20T03:49:44;1.20;99.90
18426;DHT22;9340;48.756;9.226;2023-04-20T03:52:11;1.20;99.90
18426;DHT22;9340;48.756;9.226;2023-04-20T03:54:38;1.10;99.90
18426;DHT22;9340;48.756;9.226;2023-04-20T03:57:06;1.20;99.90
18426;DHT22;9340;48.756;9.226;2023-04-20T03:59:32;1.10;99.90
18426;DHT22;9340;48.756;9.226;2023-04-20T04:02:00;1.10;99.90
18426;DHT22;9340;48.756;9.226;2023-04-20T04:04:30;1.00;99.90
18426;DHT22;9340;48.756;9.226;2023-04-20T04:06:56;1.00;99.90
18426;DHT22;9340;48.756;9.226;2023-04-20T04:09:23;1.00;99.90
18426;DHT22;9340;48.756;9.226;2023-04-20T04:11:51;1.10;99.90
18426;DHT22;9340;48.756;9.226;2023-04-20T04:14:19;1.10;99.90
18426;DHT22;9340;48.756;9.226;2023-04-20T04:16:45;1.20;99.90
18426;DHT22;9340;48.756;9.226;2023-04-20T04:19:12;1.10;99.90
18426;DHT22;9340;48.756;9.226;2023-04-20T04:21:39;1.00;99.90
18426;DHT22;9340;48.756;9.226;2023-04-20T04:24:06;1.10;99.90
18426;DHT22;9340;48.756;9.226;2023-04-20T04:26:33;1.10;99.90
18426;DHT22;9340;48.756;9.226;2023-04-20T04:28:59;1.10;99.90
18426;DHT22;9340;48.756;9.226;2023-04-20T04:31:27;1.00;99.90
18426;DHT22;9340;48.756;9.226;2023-04-20T04:33:54;1.10;99.90
18426;DHT22;9340;48.756;9.226;2023-04-20T04:36:21;1.20;99.90
18426;DHT22;9340;48.756;9.226;2023-04-20T04:38:48;1.20;99.90
18426;DHT22;9340;48.756;9.226;2023-04-20T04:41:15;1.20;99.90
18426;DHT22;9340;48.756;9.226;2023-04-20T04:43:43;1.20;99.90
18426;DHT22;9340;48.756;9.226;2023-04-20T04:46:10;1.20;99.90
18426;DHT22;9340;48.756;9.226;2023-04-20T04:48:40;1.20;99.90
18426;DHT22;9340;48.756;9.226;2023-04-20T04:51:07;1.20;99.90
18426;DHT22;9340;48.756;9.226;2023-04-20T04:53:35;1.30;99.90
18426;DHT22;9340;48.756;9.226;2023-04-20T04:56:03;1.40;99.90
18426;DHT22;9340;48.756;9.226;2023-04-20T04:58:31;1.40;99.90
18426;DHT22;9340;48.756;9.226;2023-04-20T05:00:57;1.40;99.90
18426;DHT22;9340;48.756;9.226;2023-04-20T05:03:24;1.50;99.90
18426;DHT22;9340;48.756;9.226;2023-04-20T05:05:52;1.60;99.90
18426;DHT22;9340;48.756;9.226;2023-04-20T05:08:20;1.60;99.90
18426;DHT22;9340;48.756;9.226;2023-04-20T05:10:46;1.70;99.90
18426;DHT22;9340;48.756;9.226;2023-04-20T05:13:13;1.90;99.90
18426;DHT22;9340;48.756;9.226;2023-04-20T05:15:40;1.90;99.90
18426;DHT22;9340;48.756;9.226;2023-04-20T05:18:07;2.00;99.90
18426;DHT22;9340;48.756;9.226;2023-04-20T05:20:33;2.10;99.90
18426;DHT22;9340;48.756;9.226;2023-04-20T05:23:01;2.20;99.90
18426;DHT22;9340;48.756;9.226;2023-04-20T05:25:29;2.30;99.90
18426;DHT22;9340;48.756;9.226;2023-04-20T05:27:57;2.40;99.90
18426;DHT22;9340;48.756;9.226;2023-04-20T05:30:23;2.50;99.90
18426;DHT22;9340;48.756;9.226;2023-04-20T05:32:50;2.50;99.90
18426;DHT22;9340;48.756;9.226;2023-04-20T05:35:17;2.70;99.90
18426;DHT22;9340;48.756;9.226;2023-04-20T05:37:43;2.70;99.90
18426;DHT22;9340;48.756;9.226;2023-04-20T05:40:13;2.80;99.90
18426;DHT22;9340;48.756;9.226;2023-04-20T05:42:40;2.90;99.90
18426;DHT22;9340;48.756;9.226;2023-04-20T05:45:08;2.90;99.90
18426;DHT22;9340;48.756;9.226;2023-04-20T05:47:35;2.90;99.90
18426;DHT22;9340;48.756;9.226;2023-04-20T05:50:03;3.00;99.90
18426;DHT22;9340;48.756;9.226;2023-04-20T05:52:30;3.20;99.90
18426;DHT22;9340;48.756;9.226;2023-04-20T05:54:57;3.40;99.90
18426;DHT22;9340;48.756;9.226;2023-04-20T05:57:25;3.60;99.90
18426;DHT22;9340;48.756;9.226;2023-04-20T05:59:52;3.70;99.90
18426;DHT22;9340;48.756;9.226;2023-04-20T06:02:20;3.80;99.90
18426;DHT22;9340;48.756;9.226;2023-04-20T06:04:46;3.90;99.90
18426;DHT22;9340;48.756;9.226;2023-04-20T06:07:13;4.00;99.90
18426;DHT22;9340;48.756;9.226;2023-04-20T06:09:40;4.10;99.90
18426;DHT22;9340;48.756;9.226;2023-04-20T06:12:07;4.30;99.90
18426;DHT22;9340;48.756;9.226;2023-04-20T06:14:35;4.50;99.90
18426;DHT22;9340;48.756;9.226;2023-04-20T06:17:02;4.60;99.90
18426;DHT22;9340;48.756;9.226;2023-04-20T06:19:29;4.70;99.90
18426;DHT22;9340;48.756;9.226;2023-04-20T06:21:58;4.70;99.90
18426;DHT22;9340;48.756;9.226;2023-04-20T06:24:25;4.80;99.90
18426;DHT22;9340;48.756;9.226;2023-04-20T06:26:52;4.90;99.90
18426;DHT22;9340;48.756;9.226;2023-04-20T06:29:19;5.00;99.90
18426;DHT22;9340;48.756;9.226;2023-04-20T06:31:47;5.10;99.90
18426;DHT22;9340;48.756;9.226;2023-04-20T06:34:13;5.20;99.90
18426;DHT22;9340;48.756;9.226;2023-04-20T06:36:41;5.30;99.90
18426;DHT22;9340;48.756;9.226;2023-04-20T06:39:08;5.50;99.90
18426;DHT22;9340;48.756;9.226;2023-04-20T06:41:36;5.60;99.90
18426;DHT22;9340;48.756;9.226;2023-04-20T06:44:02;5.70;99.90
18426;DHT22;9340;48.756;9.226;2023-04-20T06:46:29;5.80;99.90
18426;DHT22;9340;48.756;9.226;2023-04-20T06:48:57;5.90;99.90
18426;DHT22;9340;48.756;9.226;2023-04-20T06:51:24;6.00;99.90
18426;DHT22;9340;48.756;9.226;2023-04-20T06:53:51;6.10;99.90
18426;DHT22;9340;48.756;9.226;2023-04-20T06:56:19;6.20;99.90
18426;DHT22;9340;48.756;9.226;2023-04-20T06:58:46;6.20;99.90
18426;DHT22;9340;48.756;9.226;2023-04-20T07:01:12;6.20;99.90
18426;DHT22;9340;48.756;9.226;2023-04-20T07:03:39;6.40;99.90
18426;DHT22;9340;48.756;9.226;2023-04-20T07:06:07;6.50;99.90
18426;DHT22;9340;48.756;9.226;2023-04-20T07:08:35;6.70;99.90
18426;DHT22;9340;48.756;9.226;2023-04-20T07:11:02;6.80;99.90
18426;DHT22;9340;48.756;9.226;2023-04-20T07:13:30;6.90;99.90
18426;DHT22;9340;48.756;9.226;2023-04-20T07:15:57;6.90;99.90
18426;DHT22;9340;48.756;9.226;2023-04-20T07:18:24;6.90;99.90
18426;DHT22;9340;48.756;9.226;2023-04-20T07:20:51;6.90;99.90
18426;DHT22;9340;48.756;9.226;2023-04-20T07:23:19;7.10;99.90
18426;DHT22;9340;48.756;9.226;2023-04-20T07:25:46;7.40;99.90
18426;DHT22;9340;48.756;9.226;2023-04-20T07:28:12;7.80;99.90
18426;DHT22;9340;48.756;9.226;2023-04-20T07:30:39;8.30;99.90
18426;DHT22;9340;48.756;9.226;2023-04-20T07:33:06;8.70;99.90
18426;DHT22;9340;48.756;9.226;2023-04-20T07:35:33;8.90;99.90
18426;DHT22;9340;48.756;9.226;2023-04-20T07:38:00;9.20;99.90
18426;DHT22;9340;48.756;9.226;2023-04-20T07:40:28;9.60;99.90
18426;DHT22;9340;48.756;9.226;2023-04-20T07:42:55;9.80;99.90
18426;DHT22;9340;48.756;9.226;2023-04-20T07:45:22;9.80;99.90
18426;DHT22;9340;48.756;9.226;2023-04-20T07:47:48;9.90;99.90
18426;DHT22;9340;48.756;9.226;2023-04-20T07:50:18;10.00;99.90
18426;DHT22;9340;48.756;9.226;2023-04-20T07:52:45;10.20;99.90
18426;DHT22;9340;48.756;9.226;2023-04-20T07:55:11;10.20;99.90
18426;DHT22;9340;48.756;9.226;2023-04-20T07:57:40;10.20;99.90
18426;DHT22;9340;48.756;9.226;2023-04-20T08:00:08;10.30;99.90
18426;DHT22;9340;48.756;9.226;2023-04-20T08:02:35;10.40;99.90
18426;DHT22;9340;48.756;9.226;2023-04-20T08:05:02;10.40;99.90
18426;DHT22;9340;48.756;9.226;2023-04-20T08:07:29;10.30;99.90
18426;DHT22;9340;48.756;9.226;2023-04-20T08:09:56;10.10;99.90
18426;DHT22;9340;48.756;9.226;2023-04-20T08:12:22;9.90;99.90
18426;DHT22;9340;48.756;9.226;2023-04-20T08:14:50;9.70;99.90
18426;DHT22;9340;48.756;9.226;2023-04-20T08:17:17;9.40;99.90
18426;DHT22;9340;48.756;9.226;2023-04-20T08:19:44;9.00;99.90
18426;DHT22;9340;48.756;9.226;2023-04-20T08:22:11;8.70;99.90
18426;DHT22;9340;48.756;9.226;2023-04-20T08:24:37;8.30;99.90
18426;DHT22;9340;48.756;9.226;2023-04-20T08:27:04;8.20;99.90
18426;DHT22;9340;48.756;9.226;2023-04-20T08:29:31;8.10;99.90
18426;DHT22;9340;48.756;9.226;2023-04-20T08:31:59;8.00;99.90
18426;DHT22;9340;48.756;9.226;2023-04-20T08:34:25;7.90;99.90
18426;DHT22;9340;48.756;9.226;2023-04-20T08:36:52;7.90;99.90
18426;DHT22;9340;48.756;9.226;2023-04-20T08:39:20;7.80;99.90
18426;DHT22;9340;48.756;9.226;2023-04-20T08:41:48;7.90;99.90
18426;DHT22;9340;48.756;9.226;2023-04-20T08:44:18;8.00;99.90
18426;DHT22;9340;48.756;9.226;2023-04-20T08:46:46;8.10;99.90
18426;DHT22;9340;48.756;9.226;2023-04-20T08:49:15;8.20;99.90
18426;DHT22;9340;48.756;9.226;2023-04-20T08:51:42;8.30;99.90
18426;DHT22;9340;48.756;9.226;2023-04-20T08:54:10;8.30;99.90
18426;DHT22;9340;48.756;9.226;2023-04-20T08:56:39;8.40;99.90
18426;DHT22;9340;48.756;9.226;2023-04-20T08:59:06;8.40;99.90
18426;DHT22;9340;48.756;9.226;2023-04-20T09:01:35;8.40;99.90
18426;DHT22;9340;48.756;9.226;2023-04-20T09:04:02;8.40;99.90
18426;DHT22;9340;48.756;9.226;2023-04-20T09:06:43;8.30;99.90
18426;DHT22;9340;48.756;9.226;2023-04-20T09:09:11;8.30;99.90
18426;DHT22;9340;48.756;9.226;2023-04-20T09:11:37;8.30;99.90
18426;DHT22;9340;48.756;9.226;2023-04-20T09:14:06;8.20;99.90
18426;DHT22;9340;48.756;9.226;2023-04-20T09:19:56;8.30;99.90
18426;DHT22;9340;48.756;9.226;2023-04-20T09:22:30;8.30;99.90
18426;DHT22;9340;48.756;9.226;2023-04-20T09:24:57;8.40;99.90
18426;DHT22;9340;48.756;9.226;2023-04-20T09:27:24;8.50;99.90
18426;DHT22;9340;48.756;9.226;2023-04-20T09:29:59;8.70;99.90
18426;DHT22;9340;48.756;9.226;2023-04-20T09:32:28;9.00;99.90
18426;DHT22;9340;48.756;9.226;2023-04-20T09:34:55;9.10;99.90
18426;DHT22;9340;48.756;9.226;2023-04-20T09:37:22;9.00;99.90
18426;DHT22;9340;48.756;9.226;2023-04-20T09:39:54;9.10;99.90
18426;DHT22;9340;48.756;9.226;2023-04-20T09:42:24;8.80;99.90
18426;DHT22;9340;48.756;9.226;2023-04-20T09:44:53;8.50;99.90
18426;DHT22;9340;48.756;9.226;2023-04-20T09:47:21;8.50;99.90
18426;DHT22;9340;48.756;9.226;2023-04-20T09:49:50;8.50;99.90
18426;DHT22;9340;48.756;9.226;2023-04-20T09:52:18;8.40;99.90
18426;DHT22;9340;48.756;9.226;2023-04-20T09:54:45;8.20;99.90
18426;DHT22;9340;48.756;9.226;2023-04-20T09:57:13;8.10;99.90
18426;DHT22;9340;48.756;9.226;2023-04-20T09:59:42;7.90;99.90
18426;DHT22;9340;48.756;9.226;2023-04-20T10:02:09;7.90;99.90
18426;DHT22;9340;48.756;9.226;2023-04-20T10:04:38;7.80;99.90
18426;DHT22;9340;48.756;9.226;2023-04-20T10:07:04;7.90;99.90
18426;DHT22;9340;48.756;9.226;2023-04-20T10:09:32;8.00;99.90
18426;DHT22;9340;48.756;9.226;2023-04-20T10:12:06;8.10;99.90
18426;DHT22;9340;48.756;9.226;2023-04-20T10:14:35;8.30;99.90
18426;DHT22;9340;48.756;9.226;2023-04-20T10:17:03;8.40;99.90
18426;DHT22;9340;48.756;9.226;2023-04-20T10:19:38;8.40;99.90
18426;DHT22;9340;48.756;9.226;2023-04-20T10:22:07;8.40;99.90
18426;DHT22;9340;48.756;9.226;2023-04-20T10:24:35;8.30;99.90
18426;DHT22;9340;48.756;9.226;2023-04-20T10:27:03;8.20;99.90
18426;DHT22;9340;48.756;9.226;2023-04-20T10:29:42;8.20;99.90
18426;DHT22;9340;48.756;9.226;2023-04-20T10:32:20;8.20;99.90
18426;DHT22;9340;48.756;9.226;2023-04-20T10:34:47;8.30;99.90
18426;DHT22;9340;48.756;9.226;2023-04-20T10:37:14;8.50;99.90
18426;DHT22;9340;48.756;9.226;2023-04-20T10:39:43;8.50;99.90
18426;DHT22;9340;48.756;9.226;2023-04-20T10:42:10;8.40;99.90
18426;DHT22;9340;48.756;9.226;2023-04-20T10:44:47;8.50;99.90
18426;DHT22;9340;48.756;9.226;2023-04-20T10:47:14;8.50;99.90
18426;DHT22;9340;48.756;9.226;2023-04-20T10:49:42;8.40;99.90
18426;DHT22;9340;48.756;9.226;2023-04-20T10:52:09;8.40;99.90
18426;DHT22;9340;48.756;9.226;2023-04-20T10:54:36;8.40;99.90
18426;DHT22;9340;48.756;9.226;2023-04-20T10:57:04;8.40;99.90
18426;DHT22;9340;48.756;9.226;2023-04-20T10:59:32;8.40;99.90
18426;DHT22;9340;48.756;9.226;2023-04-20T11:02:05;8.50;99.90
18426;DHT22;9340;48.756;9.226;2023-04-20T11:04:33;8.60;99.90
18426;DHT22;9340;48.756;9.226;2023-04-20T11:07:07;8.50;99.90
18426;DHT22;9340;48.756;9.226;2023-04-20T11:09:34;8.50;99.90
18426;DHT22;9340;48.756;9.226;2023-04-20T11:12:03;8.50;99.90
18426;DHT22;9340;48.756;9.226;2023-04-20T11:14:31;8.50;99.90
18426;DHT22;9340;48.756;9.226;2023-04-20T11:16:58;8.60;99.90
18426;DHT22;9340;48.756;9.226;2023-04-20T11:19:28;8.70;99.90
18426;DHT22;9340;48.756;9.226;2023-04-20T11:21:55;8.70;99.90
18426;DHT22;9340;48.756;9.226;2023-04-20T11:24:23;8.90;99.90
18426;DHT22;9340;48.756;9.226;2023-04-20T11:26:51;9.10;99.90
18426;DHT22;9340;48.756;9.226;2023-04-20T11:29:29;9.40;99.90
18426;DHT22;9340;48.756;9.226;2023-04-20T11:31:56;9.60;99.90
18426;DHT22;9340;48.756;9.226;2023-04-20T11:34:23;9.90;99.90
18426;DHT22;9340;48.756;9.226;2023-04-20T11:36:52;9.80;99.90
18426;DHT22;9340;48.756;9.226;2023-04-20T11:39:24;9.60;99.90
18426;DHT22;9340;48.756;9.226;2023-04-20T11:41:52;9.30;99.90
18426;DHT22;9340;48.756;9.226;2023-04-20T11:44:19;9.30;99.90
18426;DHT22;9340;48.756;9.226;2023-04-20T11:46:47;9.40;99.90
18426;DHT22;9340;48.756;9.226;2023-04-20T11:49:15;9.50;99.90
18426;DHT22;9340;48.756;9.226;2023-04-20T11:51:42;9.70;99.90
18426;DHT22;9340;48.756;9.226;2023-04-20T11:54:10;9.80;99.90
18426;DHT22;9340;48.756;9.226;2023-04-20T11:56:37;9.70;99.90
18426;DHT22;9340;48.756;9.226;2023-04-20T11:59:04;9.70;99.90
18426;DHT22;9340;48.756;9.226;2023-04-20T12:01:31;9.70;99.90
18426;DHT22;9340;48.756;9.226;2023-04-20T12:03:58;9.70;99.90
18426;DHT22;9340;48.756;9.226;2023-04-20T12:06:26;9.70;99.90
18426;DHT22;9340;48.756;9.226;2023-04-20T12:08:53;9.60;99.90
18426;DHT22;9340;48.756;9.226;2023-04-20T12:11:22;9.50;99.90
18426;DHT22;9340;48.756;9.226;2023-04-20T12:13:49;9.50;99.90
18426;DHT22;9340;48.756;9.226;2023-04-20T12:16:16;9.30;99.90
18426;DHT22;9340;48.756;9.226;2023-04-20T12:18:43;9.10;99.90
18426;DHT22;9340;48.756;9.226;2023-04-20T12:21:10;9.00;99.90
18426;DHT22;9340;48.756;9.226;2023-04-20T12:23:37;8.90;99.90
18426;DHT22;9340;48.756;9.226;2023-04-20T12:26:04;9.00;99.90
18426;DHT22;9340;48.756;9.226;2023-04-20T12:28:32;9.10;99.90
18426;DHT22;9340;48.756;9.226;2023-04-20T12:30:59;9.10;99.90
18426;DHT22;9340;48.756;9.226;2023-04-20T12:33:27;9.20;99.90
18426;DHT22;9340;48.756;9.226;2023-04-20T12:35:54;9.20;99.90
18426;DHT22;9340;48.756;9.226;2023-04-20T12:38:20;9.20;99.90
18426;DHT22;9340;48.756;9.226;2023-04-20T12:40:47;9.30;99.90
18426;DHT22;9340;48.756;9.226;2023-04-20T12:43:14;9.30;99.90
18426;DHT22;9340;48.756;9.226;2023-04-20T12:45:42;9.30;99.90
18426;DHT22;9340;48.756;9.226;2023-04-20T12:48:09;9.10;99.90
18426;DHT22;9340;48.756;9.226;2023-04-20T12:50:36;9.10;99.90
18426;DHT22;9340;48.756;9.226;2023-04-20T12:53:03;9.30;99.90
18426;DHT22;9340;48.756;9.226;2023-04-20T12:55:30;9.30;99.90
18426;DHT22;9340;48.756;9.226;2023-04-20T12:57:57;9.30;99.90
18426;DHT22;9340;48.756;9.226;2023-04-20T13:00:23;9.30;99.90
18426;DHT22;9340;48.756;9.226;2023-04-20T13:02:52;9.10;99.90
18426;DHT22;9340;48.756;9.226;2023-04-20T13:05:19;9.10;99.90
18426;DHT22;9340;48.756;9.226;2023-04-20T13:07:45;9.00;99.90
18426;DHT22;9340;48.756;9.226;2023-04-20T13:10:12;9.00;99.90
18426;DHT22;9340;48.756;9.226;2023-04-20T13:12:39;9.00;99.90
18426;DHT22;9340;48.756;9.226;2023-04-20T13:15:07;9.00;99.90
18426;DHT22;9340;48.756;9.226;2023-04-20T13:17:34;8.90;99.90
18426;DHT22;9340;48.756;9.226;2023-04-20T13:20:03;8.80;99.90
18426;DHT22;9340;48.756;9.226;2023-04-20T13:22:30;8.70;99.90
18426;DHT22;9340;48.756;9.226;2023-04-20T13:24:57;8.70;99.90
18426;DHT22;9340;48.756;9.226;2023-04-20T13:27:24;8.70;99.90
18426;DHT22;9340;48.756;9.226;2023-04-20T13:29:51;8.70;99.90
18426;DHT22;9340;48.756;9.226;2023-04-20T13:32:18;8.80;99.90
18426;DHT22;9340;48.756;9.226;2023-04-20T13:34:45;8.80;99.90
18426;DHT22;9340;48.756;9.226;2023-04-20T13:37:13;8.80;99.90
18426;DHT22;9340;48.756;9.226;2023-04-20T13:39:40;8.80;99.90
18426;DHT22;9340;48.756;9.226;2023-04-20T13:42:06;8.70;99.90
18426;DHT22;9340;48.756;9.226;2023-04-20T13:44:34;8.70;99.90
18426;DHT22;9340;48.756;9.226;2023-04-20T13:47:01;8.70;99.90
18426;DHT22;9340;48.756;9.226;2023-04-20T13:49:28;8.70;99.90
18426;DHT22;9340;48.756;9.226;2023-04-20T13:51:55;8.70;99.90
18426;DHT22;9340;48.756;9.226;2023-04-20T13:54:23;8.80;99.90
18426;DHT22;9340;48.756;9.226;2023-04-20T13:56:50;8.80;99.90
18426;DHT22;9340;48.756;9.226;2023-04-20T13:59:17;8.80;99.90
18426;DHT22;9340;48.756;9.226;2023-04-20T14:01:44;8.90;99.90
18426;DHT22;9340;48.756;9.226;2023-04-20T14:04:10;8.90;99.90
18426;DHT22;9340;48.756;9.226;2023-04-20T14:06:40;8.90;99.90
18426;DHT22;9340;48.756;9.226;2023-04-20T14:09:07;8.90;99.90
18426;DHT22;9340;48.756;9.226;2023-04-20T14:11:35;9.00;99.90
18426;DHT22;9340;48.756;9.226;2023-04-20T14:14:02;9.00;99.90
18426;DHT22;9340;48.756;9.226;2023-04-20T14:16:30;8.80;99.90
18426;DHT22;9340;48.756;9.226;2023-04-20T14:18:57;8.80;99.90
18426;DHT22;9340;48.756;9.226;2023-04-20T14:21:24;8.90;99.90
18426;DHT22;9340;48.756;9.226;2023-04-20T14:23:52;8.90;99.90
18426;DHT22;9340;48.756;9.226;2023-04-20T14:26:21;9.00;99.90
18426;DHT22;9340;48.756;9.226;2023-04-20T14:28:49;9.00;99.90
18426;DHT22;9340;48.756;9.226;2023-04-20T14:31:17;9.10;99.90
18426;DHT22;9340;48.756;9.226;2023-04-20T14:33:44;9.00;99.90
18426;DHT22;9340;48.756;9.226;2023-04-20T14:36:11;8.90;99.90
18426;DHT22;9340;48.756;9.226;2023-04-20T14:38:38;8.80;99.90
18426;DHT22;9340;48.756;9.226;2023-04-20T14:41:05;8.70;99.90
18426;DHT22;9340;48.756;9.226;2023-04-20T14:43:32;8.70;99.90
18426;DHT22;9340;48.756;9.226;2023-04-20T14:46:00;8.70;99.90
18426;DHT22;9340;48.756;9.226;2023-04-20T14:48:27;8.70;99.90
18426;DHT22;9340;48.756;9.226;2023-04-20T14:50:54;8.60;99.90
18426;DHT22;9340;48.756;9.226;2023-04-20T14:53:21;8.70;99.90
18426;DHT22;9340;48.756;9.226;2023-04-20T14:55:48;8.70;99.90
18426;DHT22;9340;48.756;9.226;2023-04-20T14:58:16;8.70;99.90
18426;DHT22;9340;48.756;9.226;2023-04-20T15:00:43;8.60;99.90
18426;DHT22;9340;48.756;9.226;2023-04-20T15:03:12;8.70;99.90
18426;DHT22;9340;48.756;9.226;2023-04-20T15:05:39;8.80;99.90
18426;DHT22;9340;48.756;9.226;2023-04-20T15:08:06;8.80;99.90
18426;DHT22;9340;48.756;9.226;2023-04-20T15:10:32;8.70;99.90
18426;DHT22;9340;48.756;9.226;2023-04-20T15:12:59;8.70;99.90
18426;DHT22;9340;48.756;9.226;2023-04-20T15:15:26;8.70;99.90
18426;DHT22;9340;48.756;9.226;2023-04-20T15:17:53;8.70;99.90
18426;DHT22;9340;48.756;9.226;2023-04-20T15:20:21;8.60;99.90
18426;DHT22;9340;48.756;9.226;2023-04-20T15:22:48;8.60;99.90
18426;DHT22;9340;48.756;9.226;2023-04-20T15:25:15;8.50;99.90
18426;DHT22;9340;48.756;9.226;2023-04-20T15:27:42;8.40;99.90
18426;DHT22;9340;48.756;9.226;2023-04-20T15:30:09;8.40;99.90
18426;DHT22;9340;48.756;9.226;2023-04-20T15:32:36;8.30;99.90
18426;DHT22;9340;48.756;9.226;2023-04-20T15:35:04;8.20;99.90
18426;DHT22;9340;48.756;9.226;2023-04-20T15:37:32;8.30;99.90
18426;DHT22;9340;48.756;9.226;2023-04-20T15:39:59;8.30;99.90
18426;DHT22;9340;48.756;9.226;2023-04-20T15:42:26;8.20;99.90
18426;DHT22;9340;48.756;9.226;2023-04-20T15:44:53;8.10;99.90
18426;DHT22;9340;48.756;9.226;2023-04-20T15:47:19;8.20;99.90
18426;DHT22;9340;48.756;9.226;2023-04-20T15:49:46;8.30;99.90
18426;DHT22;9340;48.756;9.226;2023-04-20T15:52:13;8.30;99.90
18426;DHT22;9340;48.756;9.226;2023-04-20T15:54:41;8.30;99.90
18426;DHT22;9340;48.756;9.226;2023-04-20T15:57:08;8.20;99.90
18426;DHT22;9340;48.756;9.226;2023-04-20T15:59:35;8.10;99.90
18426;DHT22;9340;48.756;9.226;2023-04-20T16:02:01;8.10;99.90
18426;DHT22;9340;48.756;9.226;2023-04-20T16:04:28;8.10;99.90
18426;DHT22;9340;48.756;9.226;2023-04-20T16:06:55;8.10;99.90